This is the latest recevied weather packets stored in our database for station/object VK5ALG-13. If no packets are shown the sender has not sent any weather packets the latest 10 day(s).
| Time | Temp. | Humidity | Pressure | Rain* | Wind** | Luminosity | Snow |
|---|---|---|---|---|---|---|---|
| 1778091627 | 10.56° C | 70% | 1027.5 hPa | 0 mm | - | - | - |
| 1778084425 | 11.11° C | 68% | 1027.5 hPa | 0 mm | - | - | - |
| 1778083218 | 11.67° C | 65% | 1027.3 hPa | 0 mm | - | - | - |
| 1778082634 | 12.22° C | 63% | 1027.5 hPa | 0 mm | - | - | - |
| 1778071234 | 12.78° C | 70% | 1026.5 hPa | 0 mm | - | - | - |
| 1778061026 | 13.89° C | 84% | 1024.8 hPa | 0 mm | - | - | - |
| 1778059236 | 14.44° C | 85% | 1024.3 hPa | 0 mm | - | - | - |
| 1778058632 | 14.44° C | 83% | 1024.1 hPa | 0 mm | - | - | - |
| 1778058028 | 15° C | 83% | 1023.8 hPa | 0 mm | - | - | - |
| 1778056821 | 15° C | 82% | 1023.5 hPa | 0.25 mm | - | - | - |
| 1778055635 | 15° C | 82% | 1023.3 hPa | 0.25 mm | - | - | - |
| 1778047874 | 18.33° C | 65% | 1022.4 hPa | 0 mm | - | - | - |
| 1778043621 | 17.22° C | 75% | 1022.3 hPa | 0 mm | - | - | - |
| 1778042435 | 17.22° C | 79% | 1022.3 hPa | 0 mm | - | - | - |
| 1778040623 | 18.89° C | 73% | 1022.2 hPa | 0.25 mm | - | - | - |
| 1778039478 | 17.22° C | 87% | 1022.4 hPa | 1.02 mm | - | - | - |
| 1778037021 | 16.11° C | 87% | 1022.7 hPa | 0.76 mm | - | - | - |
| 1778034648 | 17.78° C | 73% | 1023.2 hPa | 0 mm | - | - | - |
| 1778032233 | 18.89° C | 67% | 1023.6 hPa | 0 mm | - | - | - |
| 1778013038 | 13.89° C | 81% | 1023.1 hPa | 0 mm | - | - | - |
| 1778007626 | 13.89° C | 81% | 1023 hPa | 0 mm | - | - | - |
| 1778006439 | 13.33° C | 84% | 1023 hPa | 0 mm | - | - | - |
| 1778005835 | 13.33° C | 85% | 1023 hPa | 0 mm | - | - | - |
| 1778001630 | 13.33° C | 88% | 1023.1 hPa | 0 mm | - | - | - |
| 1778000443 | 13.33° C | 87% | 1023.3 hPa | 0 mm | - | - | - |
* Rain latest hour (hover to see other rain measurements)
** Current wind speed in m/s (hover to see current wind gust speed)